SBIH

Itaituba Airport

Itaituba, Brazil
TAF SBIH 151000Z 1512/1524 14005KT 6000 FEW015 TN27/1512Z TX33/1517Z BECMG 1514/1516 09005KT 9999 SCT023 BECMG 1521/1523 00000KT FEW025 RMK PCQ
Issued Valid From Valid To
Nov-15 @ 10:00 UTC
(3 hours ago)
Nov-15 @ 12:00 UTC
(an hour ago)
Nov-16 @ 00:00 UTC
(in 11 hours)
Nov-15 @ 12:00 to Nov-15 @ 14:00
TAF SBIH 151000Z 1512/1524 14005KT 6000 FEW015 TN27/1512Z TX33/1517Z
Wind Visibility Clouds
140° at 5 knots 6,003 meters
  • Few at 1,500' AGL
Becoming Nov-15 @ 14:00 to Nov-15 @ 21:00
BECMG 1514/1516 09005KT 9999 SCT023
Wind Visibility Clouds
90° at 5 knots 10,000+ meters
  • Scattered at 2,300' AGL
Becoming Nov-15 @ 21:00 to Nov-16 @ 00:00
BECMG 1521/1523 00000KT FEW025 RMK PCQ
Visibility Clouds
10,000+ meters
  • Few at 2,500' AGL
TAF SBIH 151000Z 1512/1524 14005KT 6000 FEW015 TN27/1512Z TX33/1517Z BECMG 1514/1516 09005KT 9999 SCT023 BECMG 1521/1523 00000KT FEW025 RMK PCQ
Issued Nov-15 @ 10:00 UTC
(3 hours ago)
Valid From Nov-15 @ 12:00 UTC
(an hour ago)
Valid To Nov-16 @ 00:00 UTC
(in 11 hours)
Nov-15 @ 12:00 - Nov-15 @ 14:00
Wind Visibility
140° at 5 knots 6,003 meters
Clouds
  • Few at 1,500' AGL
Becoming Nov-15 @ 14:00 - Nov-15 @ 21:00
Wind Visibility
90° at 5 knots 10,000+ meters
Clouds
  • Scattered at 2,300' AGL
Becoming Nov-15 @ 21:00 - Nov-16 @ 00:00
Clouds
  • Few at 2,500' AGL